עמוד ראשי
METAR-TAF:

METAR-TAF

שדות תעופה :

Loreto, מקסיקו

קו רוחב: 26-01N, קו אורך: 111-21W, גובה: 15מטר

תצפית מזג אוויר נוכחית

הדו"ח נערך לפני 7 שעות ו 55דקות, בשעה 01:40 UTC
רוח 6קשר מכיוון דרום-מזרח
טמפרטורת 30 צלסיוס
לחות 66%
לחץ 1004 hPa
ראות: 12.9קילומטר
שמיים נקיים

METAR: MMLT 160140Z 14006KT 8SM SKC 30/23 A2966 RMK HZY

זמן: 03:35 (09:35 UTC)

תחזית

הדו"ח נערך לפני 4 שעות ו 33דקות, בשעה 05:02 UTC
תחזית בתוקף מ 16 ב 06 UTC עד 17 ב 06 UTC
רוח קשר מכיוון צפון
ראות: 9.7קילומטר
שמיים נקיים
אובך
זמנית מ -
16 ב 12 UTC עד 16 ב 15 UTC
ראות: 4.8קילומטר
אד, אובך
מ 16 ב 1900UTC
רוח 15קשר מכיוון דרום-מזרח
ראות: 10קילומטר
שמיים נקיים
יעשה מ
17 ב 01 UTC עד 17 ב 02 UTC
רוח 5קשר מכיוון מערב/דרום-מערב

TAF: MMLT 160502Z 1606/1706 00000KT 6SM HZ SKC TEMPO 1612/1615 3SM BR HZ FM161900 14015KT P6SM SKC BECMG 1701/1702 24005KT

תצפיות ותחזיות מזג אוויר לגבי יותר מ- 4,000 שדות תעופה ברחבי העולם. דוחות METAR ו- TAF.

התחנות הזמינות מסומנות בנקודות צהובות ואדומות על גבי המפה.

העבר את העכבר לנקודה הצבעונית על מנת לראות את שם התחנה.

לאחר מכן, לחץ כדי לראות את תוכן ואת תחזיות מזג האוויר.

כדי לשנות את המפה: לחץ על הכפתורים הירוקים עם הפלוס השחור כדי להתקרב; על הכפתור הירוק עם המקף כדי להתרחק; או בחיצים הירוקים למפות סמוכות.


METAR-TAF: